sensor_id;sensor_type;location;lat;lon;timestamp;pressure;altitude;pressure_sealevel;temperature;humidity
47524;BME280;33253;42.144;25.884;2023-05-19T00:01:10;100331.81;;;12.91;100.00
47524;BME280;33253;42.144;25.884;2023-05-19T00:03:39;100320.09;;;12.72;100.00
47524;BME280;33253;42.144;25.884;2023-05-19T00:06:09;100307.66;;;12.59;100.00
47524;BME280;33253;42.144;25.884;2023-05-19T00:08:36;100335.50;;;12.66;100.00
47524;BME280;33253;42.144;25.884;2023-05-19T00:11:02;100339.75;;;12.64;100.00
47524;BME280;33253;42.144;25.884;2023-05-19T00:13:28;100330.47;;;12.72;100.00
47524;BME280;33253;42.144;25.884;2023-05-19T00:15:54;100322.59;;;12.69;100.00
47524;BME280;33253;42.144;25.884;2023-05-19T00:18:19;100326.84;;;12.67;100.00
47524;BME280;33253;42.144;25.884;2023-05-19T00:20:45;100329.34;;;12.62;100.00
47524;BME280;33253;42.144;25.884;2023-05-19T00:23:10;100312.69;;;12.53;100.00
47524;BME280;33253;42.144;25.884;2023-05-19T00:25:36;100245.34;;;12.19;100.00
47524;BME280;33253;42.144;25.884;2023-05-19T00:28:01;100223.63;;;12.12;100.00
47524;BME280;33253;42.144;25.884;2023-05-19T00:30:28;100325.22;;;12.71;100.00
47524;BME280;33253;42.144;25.884;2023-05-19T00:32:53;100235.88;;;12.20;100.00
47524;BME280;33253;42.144;25.884;2023-05-19T00:35:19;100320.09;;;12.72;100.00
47524;BME280;33253;42.144;25.884;2023-05-19T00:37:45;100322.88;;;12.80;100.00
47524;BME280;33253;42.144;25.884;2023-05-19T00:40:11;100224.53;;;12.14;100.00
47524;BME280;33253;42.144;25.884;2023-05-19T00:42:37;100328.91;;;12.79;100.00
47524;BME280;33253;42.144;25.884;2023-05-19T00:45:03;100301.69;;;12.61;100.00
47524;BME280;33253;42.144;25.884;2023-05-19T00:47:29;100179.63;;;11.80;100.00
47524;BME280;33253;42.144;25.884;2023-05-19T00:49:55;100312.72;;;12.54;100.00
47524;BME280;33253;42.144;25.884;2023-05-19T00:52:20;100294.28;;;12.42;100.00
47524;BME280;33253;42.144;25.884;2023-05-19T00:54:46;100307.38;;;12.48;100.00
47524;BME280;33253;42.144;25.884;2023-05-19T00:57:13;100310.94;;;12.52;100.00
47524;BME280;33253;42.144;25.884;2023-05-19T00:59:38;100302.78;;;12.36;100.00
47524;BME280;33253;42.144;25.884;2023-05-19T01:02:04;100321.16;;;12.47;100.00
47524;BME280;33253;42.144;25.884;2023-05-19T01:04:30;100315.94;;;12.45;100.00
47524;BME280;33253;42.144;25.884;2023-05-19T01:06:59;100317.78;;;12.50;100.00
47524;BME280;33253;42.144;25.884;2023-05-19T01:09:25;100299.63;;;12.48;100.00
47524;BME280;33253;42.144;25.884;2023-05-19T01:15:13;100282.63;;;12.26;100.00
47524;BME280;33253;42.144;25.884;2023-05-19T01:17:52;100313.16;;;12.38;100.00
47524;BME280;33253;42.144;25.884;2023-05-19T01:20:22;100218.94;;;11.69;100.00
47524;BME280;33253;42.144;25.884;2023-05-19T01:23:14;100323.16;;;12.25;100.00
47524;BME280;33253;42.144;25.884;2023-05-19T01:31:10;100321.25;;;12.18;100.00
47524;BME280;33253;42.144;25.884;2023-05-19T01:33:36;100307.16;;;12.08;100.00
47524;BME280;33253;42.144;25.884;2023-05-19T01:36:07;100228.13;;;11.59;100.00
47524;BME280;33253;42.144;25.884;2023-05-19T01:41:37;100336.72;;;12.17;100.00
47524;BME280;33253;42.144;25.884;2023-05-19T01:44:03;100329.81;;;12.16;100.00
47524;BME280;33253;42.144;25.884;2023-05-19T01:46:29;100256.19;;;11.75;100.00
47524;BME280;33253;42.144;25.884;2023-05-19T01:48:54;100324.94;;;12.26;100.00
47524;BME280;33253;42.144;25.884;2023-05-19T01:51:20;100320.44;;;12.21;100.00
47524;BME280;33253;42.144;25.884;2023-05-19T01:53:45;100318.69;;;12.20;100.00
47524;BME280;33253;42.144;25.884;2023-05-19T01:59:46;100285.28;;;11.97;100.00
47524;BME280;33253;42.144;25.884;2023-05-19T02:02:33;100328.78;;;12.10;100.00
47524;BME280;33253;42.144;25.884;2023-05-19T02:05:09;100331.41;;;12.12;100.00
47524;BME280;33253;42.144;25.884;2023-05-19T02:07:51;100328.97;;;12.17;100.00
47524;BME280;33253;42.144;25.884;2023-05-19T02:10:22;100325.56;;;12.18;100.00
47524;BME280;33253;42.144;25.884;2023-05-19T02:12:52;100262.25;;;11.76;100.00
47524;BME280;33253;42.144;25.884;2023-05-19T02:15:23;100311.38;;;12.05;100.00
47524;BME280;33253;42.144;25.884;2023-05-19T02:17:52;100314.03;;;12.06;100.00
47524;BME280;33253;42.144;25.884;2023-05-19T02:20:20;100323.50;;;12.07;100.00
47524;BME280;33253;42.144;25.884;2023-05-19T02:22:48;100326.16;;;12.09;100.00
47524;BME280;33253;42.144;25.884;2023-05-19T02:25:14;100314.84;;;12.05;100.00
47524;BME280;33253;42.144;25.884;2023-05-19T02:27:40;100260.41;;;11.72;100.00
47524;BME280;33253;42.144;25.884;2023-05-19T02:30:07;100341.88;;;12.15;100.00
47524;BME280;33253;42.144;25.884;2023-05-19T02:32:33;100336.09;;;12.24;100.00
47524;BME280;33253;42.144;25.884;2023-05-19T02:34:59;100323.50;;;12.07;100.00
47524;BME280;33253;42.144;25.884;2023-05-19T02:37:24;100346.09;;;12.11;100.00
47524;BME280;33253;42.144;25.884;2023-05-19T02:39:53;100346.31;;;12.21;100.00
47524;BME280;33253;42.144;25.884;2023-05-19T02:42:18;100335.53;;;12.04;100.00
47524;BME280;33253;42.144;25.884;2023-05-19T02:44:44;100331.16;;;12.03;100.00
47524;BME280;33253;42.144;25.884;2023-05-19T02:47:10;100347.88;;;12.14;100.00
47524;BME280;33253;42.144;25.884;2023-05-19T02:49:36;100353.03;;;12.12;100.00
47524;BME280;33253;42.144;25.884;2023-05-19T02:52:02;100355.81;;;12.20;100.00
47524;BME280;33253;42.144;25.884;2023-05-19T02:54:32;100358.25;;;12.16;100.00
47524;BME280;33253;42.144;25.884;2023-05-19T02:56:58;100359.09;;;12.14;100.00
47524;BME280;33253;42.144;25.884;2023-05-19T02:59:24;100305.53;;;11.81;100.00
47524;BME280;33253;42.144;25.884;2023-05-19T03:01:53;100346.78;;;12.06;100.00
47524;BME280;33253;42.144;25.884;2023-05-19T03:04:19;100300.41;;;11.85;100.00
47524;BME280;33253;42.144;25.884;2023-05-19T03:06:45;100360.16;;;12.21;100.00
47524;BME280;33253;42.144;25.884;2023-05-19T03:09:11;100305.69;;;11.88;100.00
47524;BME280;33253;42.144;25.884;2023-05-19T03:11:38;100359.09;;;12.14;100.00
47524;BME280;33253;42.144;25.884;2023-05-19T03:14:04;100370.56;;;12.23;100.00
47524;BME280;33253;42.144;25.884;2023-05-19T03:16:30;100377.44;;;12.22;100.00
47524;BME280;33253;42.144;25.884;2023-05-19T03:18:56;100357.41;;;12.15;100.00
47524;BME280;33253;42.144;25.884;2023-05-19T03:21:22;100376.63;;;12.25;100.00
47524;BME280;33253;42.144;25.884;2023-05-19T03:23:47;100382.13;;;12.36;100.00
47524;BME280;33253;42.144;25.884;2023-05-19T03:26:13;100396.13;;;12.42;100.00
47524;BME280;33253;42.144;25.884;2023-05-19T03:28:38;100399.63;;;12.44;100.00
47524;BME280;33253;42.144;25.884;2023-05-19T03:31:04;100390.19;;;12.46;100.00
47524;BME280;33253;42.144;25.884;2023-05-19T03:33:30;100396.47;;;12.55;100.00
47524;BME280;33253;42.144;25.884;2023-05-19T03:35:56;100399.50;;;12.40;100.00
47524;BME280;33253;42.144;25.884;2023-05-19T03:38:21;100413.53;;;12.48;100.00
47524;BME280;33253;42.144;25.884;2023-05-19T03:40:47;100418.72;;;12.48;100.00
47524;BME280;33253;42.144;25.884;2023-05-19T03:43:12;100424.19;;;12.57;100.00
47524;BME280;33253;42.144;25.884;2023-05-19T03:45:38;100417.41;;;12.62;100.00
47524;BME280;33253;42.144;25.884;2023-05-19T03:48:04;100420.19;;;12.70;100.00
47524;BME280;33253;42.144;25.884;2023-05-19T03:50:30;100420.19;;;12.70;100.00
47524;BME280;33253;42.144;25.884;2023-05-19T03:52:56;100336.56;;;12.10;100.00
47524;BME280;33253;42.144;25.884;2023-05-19T03:55:22;100420.09;;;12.67;100.00
47524;BME280;33253;42.144;25.884;2023-05-19T03:57:48;100418.44;;;12.69;100.00
47524;BME280;33253;42.144;25.884;2023-05-19T04:00:13;100419.44;;;12.74;100.00
47524;BME280;33253;42.144;25.884;2023-05-19T04:02:41;100402.84;;;12.66;100.00
47524;BME280;33253;42.144;25.884;2023-05-19T04:05:06;100428.38;;;12.86;100.00
47524;BME280;33253;42.144;25.884;2023-05-19T04:07:32;100423.50;;;12.97;100.00
47524;BME280;33253;42.144;25.884;2023-05-19T04:09:58;100367.28;;;12.60;100.00
47524;BME280;33253;42.144;25.884;2023-05-19T04:12:23;100422.94;;;13.08;100.00
47524;BME280;33253;42.144;25.884;2023-05-19T04:14:49;100407.44;;;13.10;100.00
47524;BME280;33253;42.144;25.884;2023-05-19T04:17:14;100426.84;;;13.26;100.00
47524;BME280;33253;42.144;25.884;2023-05-19T04:19:40;100426.06;;;13.30;100.00
47524;BME280;33253;42.144;25.884;2023-05-19T04:22:05;100417.47;;;13.31;100.00
47524;BME280;33253;42.144;25.884;2023-05-19T04:24:31;100423.53;;;13.33;100.00
47524;BME280;33253;42.144;25.884;2023-05-19T04:26:57;100372.97;;;13.14;100.00
47524;BME280;33253;42.144;25.884;2023-05-19T04:29:27;100406.44;;;13.38;100.00
47524;BME280;33253;42.144;25.884;2023-05-19T04:31:53;100363.53;;;13.16;100.00
47524;BME280;33253;42.144;25.884;2023-05-19T04:34:19;100422.50;;;13.60;100.00
47524;BME280;33253;42.144;25.884;2023-05-19T04:36:44;100397.28;;;13.54;100.00
47524;BME280;33253;42.144;25.884;2023-05-19T04:39:10;100431.72;;;13.84;100.00
47524;BME280;33253;42.144;25.884;2023-05-19T04:41:36;100424.97;;;13.92;100.00
47524;BME280;33253;42.144;25.884;2023-05-19T04:44:05;100418.88;;;13.90;100.00
47524;BME280;33253;42.144;25.884;2023-05-19T04:46:32;100429.44;;;13.99;100.00
47524;BME280;33253;42.144;25.884;2023-05-19T04:48:58;100435.56;;;14.01;100.00
47524;BME280;33253;42.144;25.884;2023-05-19T04:51:29;100437.31;;;14.02;100.00
47524;BME280;33253;42.144;25.884;2023-05-19T04:53:56;100446.69;;;13.96;100.00
47524;BME280;33253;42.144;25.884;2023-05-19T04:56:22;100445.88;;;13.98;100.00
47524;BME280;33253;42.144;25.884;2023-05-19T04:58:48;100450.28;;;14.02;100.00
47524;BME280;33253;42.144;25.884;2023-05-19T05:01:34;100445.88;;;13.98;100.00
47524;BME280;33253;42.144;25.884;2023-05-19T05:04:05;100455.47;;;14.01;100.00
47524;BME280;33253;42.144;25.884;2023-05-19T05:06:30;100454.53;;;13.99;100.00
47524;BME280;33253;42.144;25.884;2023-05-19T05:08:56;100462.22;;;13.94;100.00
47524;BME280;33253;42.144;25.884;2023-05-19T05:11:22;100391.34;;;13.58;100.00
47524;BME280;33253;42.144;25.884;2023-05-19T05:13:47;100470.22;;;14.03;100.00
47524;BME280;33253;42.144;25.884;2023-05-19T05:16:13;100463.31;;;14.05;100.00
47524;BME280;33253;42.144;25.884;2023-05-19T05:18:39;100444.94;;;13.95;100.00
47524;BME280;33253;42.144;25.884;2023-05-19T05:21:06;100455.63;;;14.08;100.00
47524;BME280;33253;42.144;25.884;2023-05-19T05:23:31;100466.41;;;14.26;100.00
47524;BME280;33253;42.144;25.884;2023-05-19T05:25:57;100464.81;;;14.34;100.00
47524;BME280;33253;42.144;25.884;2023-05-19T05:28:23;100471.09;;;14.44;100.00
47524;BME280;33253;42.144;25.884;2023-05-19T05:30:48;100478.19;;;14.52;100.00
47524;BME280;33253;42.144;25.884;2023-05-19T05:33:15;100473.97;;;14.57;100.00
47524;BME280;33253;42.144;25.884;2023-05-19T05:35:42;100474.16;;;14.65;100.00
47524;BME280;33253;42.144;25.884;2023-05-19T05:38:07;100485.53;;;14.70;100.00
47524;BME280;33253;42.144;25.884;2023-05-19T05:40:35;100485.72;;;14.81;100.00
47524;BME280;33253;42.144;25.884;2023-05-19T05:43:01;100495.44;;;14.90;100.00
47524;BME280;33253;42.144;25.884;2023-05-19T05:45:26;100490.34;;;14.96;100.00
47524;BME280;33253;42.144;25.884;2023-05-19T05:47:52;100492.22;;;15.03;100.00
47524;BME280;33253;42.144;25.884;2023-05-19T05:50:18;100491.44;;;15.08;100.00
47524;BME280;33253;42.144;25.884;2023-05-19T05:52:46;100493.31;;;15.15;100.00
47524;BME280;33253;42.144;25.884;2023-05-19T05:55:12;100495.34;;;15.31;100.00
47524;BME280;33253;42.144;25.884;2023-05-19T05:57:37;100498.22;;;15.47;100.00
47524;BME280;33253;42.144;25.884;2023-05-19T06:00:06;100432.75;;;15.22;100.00
47524;BME280;33253;42.144;25.884;2023-05-19T06:02:45;100506.81;;;15.93;100.00
47524;BME280;33253;42.144;25.884;2023-05-19T06:05:11;100489.69;;;16.08;100.00
47524;BME280;33253;42.144;25.884;2023-05-19T06:07:39;100507.28;;;16.24;100.00
47524;BME280;33253;42.144;25.884;2023-05-19T06:10:05;100504.78;;;16.32;100.00
47524;BME280;33253;42.144;25.884;2023-05-19T06:12:31;100508.88;;;16.16;100.00
47524;BME280;33253;42.144;25.884;2023-05-19T06:14:56;100514.94;;;16.13;100.00
47524;BME280;33253;42.144;25.884;2023-05-19T06:17:22;100508.94;;;16.19;100.00
47524;BME280;33253;42.144;25.884;2023-05-19T06:19:47;100509.78;;;16.16;100.00
47524;BME280;33253;42.144;25.884;2023-05-19T06:22:12;100516.66;;;16.13;100.00
47524;BME280;33253;42.144;25.884;2023-05-19T06:24:38;100512.28;;;16.09;100.00
47524;BME280;33253;42.144;25.884;2023-05-19T06:27:04;100451.75;;;15.70;100.00
47524;BME280;33253;42.144;25.884;2023-05-19T06:29:29;100505.41;;;16.14;100.00
47524;BME280;33253;42.144;25.884;2023-05-19T06:31:55;100517.13;;;16.45;100.00
47524;BME280;33253;42.144;25.884;2023-05-19T06:34:21;100516.28;;;16.48;100.00
47524;BME280;33253;42.144;25.884;2023-05-19T06:36:47;100463.09;;;16.33;100.00
47524;BME280;33253;42.144;25.884;2023-05-19T06:39:12;100526.28;;;16.81;100.00
47524;BME280;33253;42.144;25.884;2023-05-19T06:41:38;100524.69;;;16.91;100.00
47524;BME280;33253;42.144;25.884;2023-05-19T06:44:06;100532.75;;;17.13;100.00
47524;BME280;33253;42.144;25.884;2023-05-19T06:46:33;100512.72;;;17.12;100.00
47524;BME280;33253;42.144;25.884;2023-05-19T06:48:58;100532.75;;;17.13;100.00
47524;BME280;33253;42.144;25.884;2023-05-19T06:51:24;100505.75;;;17.09;100.00
47524;BME280;33253;42.144;25.884;2023-05-19T06:53:49;100531.19;;;17.29;100.00
47524;BME280;33253;42.144;25.884;2023-05-19T06:56:15;100530.41;;;17.38;100.00
47524;BME280;33253;42.144;25.884;2023-05-19T06:58:40;100490.22;;;17.23;100.00
47524;BME280;33253;42.144;25.884;2023-05-19T07:01:06;100527.00;;;17.45;100.00
47524;BME280;33253;42.144;25.884;2023-05-19T07:03:32;100528.81;;;17.55;100.00
47524;BME280;33253;42.144;25.884;2023-05-19T07:05:57;100523.69;;;17.65;100.00
47524;BME280;33253;42.144;25.884;2023-05-19T07:08:23;100521.16;;;17.72;100.00
47524;BME280;33253;42.144;25.884;2023-05-19T07:10:48;100452.22;;;17.47;100.00
47524;BME280;33253;42.144;25.884;2023-05-19T07:13:13;100520.41;;;17.90;100.00
47524;BME280;33253;42.144;25.884;2023-05-19T07:15:39;100520.47;;;17.95;100.00
47524;BME280;33253;42.144;25.884;2023-05-19T07:18:05;100514.53;;;18.16;100.00
47524;BME280;33253;42.144;25.884;2023-05-19T07:20:30;100526.81;;;18.31;100.00
47524;BME280;33253;42.144;25.884;2023-05-19T07:22:55;100515.56;;;18.43;100.00
47524;BME280;33253;42.144;25.884;2023-05-19T07:25:21;100523.44;;;18.55;100.00
47524;BME280;33253;42.144;25.884;2023-05-19T07:27:46;100522.66;;;18.69;100.00
47524;BME280;33253;42.144;25.884;2023-05-19T07:30:12;100522.72;;;18.84;100.00
47524;BME280;33253;42.144;25.884;2023-05-19T07:32:37;100517.56;;;19.00;100.00
47524;BME280;33253;42.144;25.884;2023-05-19T07:35:04;100406.63;;;18.36;100.00
47524;BME280;33253;42.144;25.884;2023-05-19T07:37:30;100521.97;;;19.15;100.00
47524;BME280;33253;42.144;25.884;2023-05-19T07:39:55;100517.63;;;19.17;100.00
47524;BME280;33253;42.144;25.884;2023-05-19T07:42:25;100519.41;;;19.39;100.00
47524;BME280;33253;42.144;25.884;2023-05-19T07:44:50;100515.91;;;19.34;100.00
47524;BME280;33253;42.144;25.884;2023-05-19T07:47:16;100522.03;;;19.49;100.00
47524;BME280;33253;42.144;25.884;2023-05-19T07:49:41;100453.06;;;19.14;100.00
47524;BME280;33253;42.144;25.884;2023-05-19T07:52:06;100522.03;;;19.53;100.00
47524;BME280;33253;42.144;25.884;2023-05-19T07:54:32;100532.53;;;19.50;100.00
47524;BME280;33253;42.144;25.884;2023-05-19T07:56:57;100494.09;;;19.31;100.00
47524;BME280;33253;42.144;25.884;2023-05-19T07:59:23;100512.44;;;19.51;100.00
47524;BME280;33253;42.144;25.884;2023-05-19T08:01:50;100465.28;;;19.11;100.00
47524;BME280;33253;42.144;25.884;2023-05-19T08:04:15;100525.53;;;19.52;100.00
47524;BME280;33253;42.144;25.884;2023-05-19T08:06:41;100530.75;;;19.59;100.00
47524;BME280;33253;42.144;25.884;2023-05-19T08:09:08;100515.06;;;19.65;100.00
47524;BME280;33253;42.144;25.884;2023-05-19T08:11:34;100491.50;;;19.60;100.00
47524;BME280;33253;42.144;25.884;2023-05-19T08:13:59;100531.69;;;19.92;100.00
47524;BME280;33253;42.144;25.884;2023-05-19T08:16:25;100535.16;;;19.98;100.00
47524;BME280;33253;42.144;25.884;2023-05-19T08:18:50;100527.31;;;20.01;100.00
47524;BME280;33253;42.144;25.884;2023-05-19T08:21:16;100535.16;;;20.12;100.00
47524;BME280;33253;42.144;25.884;2023-05-19T08:23:41;100539.53;;;20.16;100.00
47524;BME280;33253;42.144;25.884;2023-05-19T08:26:07;100472.31;;;19.89;100.00
47524;BME280;33253;42.144;25.884;2023-05-19T08:28:32;100521.16;;;20.24;99.69
47524;BME280;33253;42.144;25.884;2023-05-19T08:30:58;100522.03;;;20.26;100.00
47524;BME280;33253;42.144;25.884;2023-05-19T08:33:23;100519.38;;;20.40;100.00
47524;BME280;33253;42.144;25.884;2023-05-19T08:35:48;100514.09;;;20.43;100.00
47524;BME280;33253;42.144;25.884;2023-05-19T08:38:14;100535.91;;;20.65;100.00
47524;BME280;33253;42.144;25.884;2023-05-19T08:40:45;100532.41;;;20.73;100.00
47524;BME280;33253;42.144;25.884;2023-05-19T08:43:11;100498.31;;;20.60;100.00
47524;BME280;33253;42.144;25.884;2023-05-19T08:45:42;100533.19;;;20.95;100.00
47524;BME280;33253;42.144;25.884;2023-05-19T08:48:11;100537.50;;;21.07;96.37
47524;BME280;33253;42.144;25.884;2023-05-19T08:50:39;100501.63;;;21.07;100.00
47524;BME280;33253;42.144;25.884;2023-05-19T08:53:26;100532.94;;;21.37;100.00
47524;BME280;33253;42.144;25.884;2023-05-19T08:58:17;100538.94;;;21.54;97.26
47524;BME280;33253;42.144;25.884;2023-05-19T09:00:45;100512.72;;;21.57;96.99
47524;BME280;33253;42.144;25.884;2023-05-19T09:03:11;100537.88;;;21.85;97.29
47524;BME280;33253;42.144;25.884;2023-05-19T09:05:37;100552.59;;;22.06;96.89
47524;BME280;33253;42.144;25.884;2023-05-19T09:08:03;100505.25;;;22.07;91.48
47524;BME280;33253;42.144;25.884;2023-05-19T09:10:29;100527.81;;;22.30;93.21
47524;BME280;33253;42.144;25.884;2023-05-19T09:12:54;100526.00;;;22.34;96.51
47524;BME280;33253;42.144;25.884;2023-05-19T09:15:21;100475.31;;;22.19;90.74
47524;BME280;33253;42.144;25.884;2023-05-19T09:17:50;100522.31;;;22.52;88.83
47524;BME280;33253;42.144;25.884;2023-05-19T09:20:15;100518.75;;;22.57;91.84
47524;BME280;33253;42.144;25.884;2023-05-19T09:22:42;100524.78;;;22.67;89.17
47524;BME280;33253;42.144;25.884;2023-05-19T09:25:21;100518.50;;;22.77;90.02
47524;BME280;33253;42.144;25.884;2023-05-19T09:27:47;100521.91;;;22.87;89.25
47524;BME280;33253;42.144;25.884;2023-05-19T09:30:15;100520.03;;;22.96;90.47
47524;BME280;33253;42.144;25.884;2023-05-19T09:32:41;100447.78;;;22.53;90.62
47524;BME280;33253;42.144;25.884;2023-05-19T09:35:07;100523.50;;;22.98;89.06
47524;BME280;33253;42.144;25.884;2023-05-19T09:37:33;100509.44;;;23.00;89.63
47524;BME280;33253;42.144;25.884;2023-05-19T09:39:58;100518.00;;;23.18;88.80
47524;BME280;33253;42.144;25.884;2023-05-19T09:42:24;100473.59;;;22.90;88.99
47524;BME280;33253;42.144;25.884;2023-05-19T09:45:01;100517.06;;;23.22;90.61
47524;BME280;33253;42.144;25.884;2023-05-19T09:47:31;100454.41;;;22.83;88.37
47524;BME280;33253;42.144;25.884;2023-05-19T09:49:57;100526.03;;;23.07;87.72
47524;BME280;33253;42.144;25.884;2023-05-19T09:52:22;100463.75;;;22.34;88.30
47524;BME280;33253;42.144;25.884;2023-05-19T09:54:48;100514.34;;;22.58;88.94
47524;BME280;33253;42.144;25.884;2023-05-19T09:57:16;100507.50;;;22.43;89.83
47524;BME280;33253;42.144;25.884;2023-05-19T09:59:42;100514.28;;;22.66;90.32
47524;BME280;33253;42.144;25.884;2023-05-19T10:02:13;100505.44;;;22.70;90.57
47524;BME280;33253;42.144;25.884;2023-05-19T10:04:40;100443.72;;;22.24;86.59
47524;BME280;33253;42.144;25.884;2023-05-19T10:07:07;100497.13;;;22.29;88.73
47524;BME280;33253;42.144;25.884;2023-05-19T10:09:35;100478.16;;;21.99;91.62
47524;BME280;33253;42.144;25.884;2023-05-19T10:12:01;100511.34;;;22.11;88.68
47524;BME280;33253;42.144;25.884;2023-05-19T10:14:28;100514.00;;;22.08;90.76
47524;BME280;33253;42.144;25.884;2023-05-19T10:16:57;100491.47;;;21.82;88.99
47524;BME280;33253;42.144;25.884;2023-05-19T10:19:27;100455.72;;;21.67;91.29
47524;BME280;33253;42.144;25.884;2023-05-19T10:21:53;100515.56;;;22.27;91.30
47524;BME280;33253;42.144;25.884;2023-05-19T10:24:19;100500.47;;;22.46;88.55
47524;BME280;33253;42.144;25.884;2023-05-19T10:27:04;100499.53;;;22.52;89.92
47524;BME280;33253;42.144;25.884;2023-05-19T10:29:35;100505.66;;;22.53;87.12
47524;BME280;33253;42.144;25.884;2023-05-19T10:32:06;100512.81;;;22.41;87.98
47524;BME280;33253;42.144;25.884;2023-05-19T10:35:11;100511.00;;;22.45;88.54
47524;BME280;33253;42.144;25.884;2023-05-19T10:40:36;100506.19;;;22.81;86.55
47524;BME280;33253;42.144;25.884;2023-05-19T10:45:47;100508.81;;;22.81;82.40
47524;BME280;33253;42.144;25.884;2023-05-19T10:48:18;100445.09;;;22.57;79.85
47524;BME280;33253;42.144;25.884;2023-05-19T10:50:48;100499.84;;;22.96;84.33
47524;BME280;33253;42.144;25.884;2023-05-19T10:53:17;100443.31;;;22.58;80.28
47524;BME280;33253;42.144;25.884;2023-05-19T10:58:14;100470.47;;;22.61;79.08
47524;BME280;33253;42.144;25.884;2023-05-19T11:00:40;100490.16;;;22.98;74.17
47524;BME280;33253;42.144;25.884;2023-05-19T11:03:15;100489.59;;;23.38;79.87
47524;BME280;33253;42.144;25.884;2023-05-19T11:05:42;100465.53;;;23.60;78.52
47524;BME280;33253;42.144;25.884;2023-05-19T11:08:10;100477.66;;;23.70;74.42
47524;BME280;33253;42.144;25.884;2023-05-19T11:10:36;100471.25;;;23.85;73.77
47524;BME280;33253;42.144;25.884;2023-05-19T11:13:03;100462.91;;;24.10;75.83
47524;BME280;33253;42.144;25.884;2023-05-19T11:15:33;100468.94;;;24.17;65.92
47524;BME280;33253;42.144;25.884;2023-05-19T11:18:00;100428.75;;;24.04;68.37
47524;BME280;33253;42.144;25.884;2023-05-19T11:20:27;100461.75;;;24.25;66.60
47524;BME280;33253;42.144;25.884;2023-05-19T11:23:06;100464.69;;;24.08;71.29
47524;BME280;33253;42.144;25.884;2023-05-19T11:25:41;100455.31;;;23.90;70.08
47524;BME280;33253;42.144;25.884;2023-05-19T11:28:09;100448.56;;;23.77;72.00
47524;BME280;33253;42.144;25.884;2023-05-19T11:30:36;100448.56;;;23.77;71.05
47524;BME280;33253;42.144;25.884;2023-05-19T11:33:02;100447.50;;;23.87;71.19
47524;BME280;33253;42.144;25.884;2023-05-19T11:35:28;100420.47;;;23.75;69.93
47524;BME280;33253;42.144;25.884;2023-05-19T11:37:55;100429.53;;;24.09;67.96
47524;BME280;33253;42.144;25.884;2023-05-19T11:40:22;100450.19;;;24.31;69.72
47524;BME280;33253;42.144;25.884;2023-05-19T11:42:47;100440.09;;;24.51;71.49
47524;BME280;33253;42.144;25.884;2023-05-19T11:45:12;100442.09;;;24.82;70.99
47524;BME280;33253;42.144;25.884;2023-05-19T11:47:38;100444.94;;;25.12;69.32
47524;BME280;33253;42.144;25.884;2023-05-19T11:50:04;100422.41;;;24.96;63.11
47524;BME280;33253;42.144;25.884;2023-05-19T11:52:29;100441.31;;;25.16;66.28
47524;BME280;33253;42.144;25.884;2023-05-19T11:54:58;100430.78;;;25.13;67.92
47524;BME280;33253;42.144;25.884;2023-05-19T11:57:25;100432.66;;;24.70;64.59
47524;BME280;33253;42.144;25.884;2023-05-19T11:59:50;100438.66;;;24.36;65.43
47524;BME280;33253;42.144;25.884;2023-05-19T12:02:19;100434.84;;;24.06;66.55
47524;BME280;33253;42.144;25.884;2023-05-19T12:04:46;100389.56;;;23.82;67.11
47524;BME280;33253;42.144;25.884;2023-05-19T12:07:14;100442.81;;;24.47;65.56
47524;BME280;33253;42.144;25.884;2023-05-19T12:09:43;100443.91;;;24.80;67.50
47524;BME280;33253;42.144;25.884;2023-05-19T12:12:12;100427.03;;;24.86;66.10
47524;BME280;33253;42.144;25.884;2023-05-19T12:14:38;100473.91;;;24.76;64.47
47524;BME280;33253;42.144;25.884;2023-05-19T12:19:37;100459.41;;;22.30;71.29
47524;BME280;33253;42.144;25.884;2023-05-19T12:22:05;100515.59;;;22.26;73.98
47524;BME280;33253;42.144;25.884;2023-05-19T12:24:32;100522.81;;;22.01;76.25
47524;BME280;33253;42.144;25.884;2023-05-19T12:29:31;100555.75;;;21.30;80.74
47524;BME280;33253;42.144;25.884;2023-05-19T12:31:56;100476.47;;;20.53;85.91
47524;BME280;33253;42.144;25.884;2023-05-19T12:34:22;100549.88;;;20.69;90.26
47524;BME280;33253;42.144;25.884;2023-05-19T12:36:48;100558.69;;;20.49;93.09
47524;BME280;33253;42.144;25.884;2023-05-19T12:39:13;100557.84;;;20.26;96.26
47524;BME280;33253;42.144;25.884;2023-05-19T12:41:39;100565.75;;;19.99;97.74
47524;BME280;33253;42.144;25.884;2023-05-19T12:44:14;100561.38;;;19.83;100.00
47524;BME280;33253;42.144;25.884;2023-05-19T12:46:40;100572.69;;;19.55;100.00
47524;BME280;33253;42.144;25.884;2023-05-19T12:49:05;100597.09;;;19.51;99.73
47524;BME280;33253;42.144;25.884;2023-05-19T12:51:31;100598.84;;;19.42;98.16
47524;BME280;33253;42.144;25.884;2023-05-19T12:53:56;100603.09;;;19.15;100.00
47524;BME280;33253;42.144;25.884;2023-05-19T12:56:24;100539.09;;;18.43;100.00
47524;BME280;33253;42.144;25.884;2023-05-19T12:58:53;100576.59;;;18.48;100.00
47524;BME280;33253;42.144;25.884;2023-05-19T13:01:19;100600.25;;;18.67;100.00
47524;BME280;33253;42.144;25.884;2023-05-19T13:03:44;100574.84;;;18.50;100.00